sensor_id;sensor_type;location;lat;lon;timestamp;temperature;humidity
16825;DHT22;8529;48.108;-1.706;2023-05-19T00:02:15;13.00;99.90
16825;DHT22;8529;48.108;-1.706;2023-05-19T00:04:43;13.00;99.90
16825;DHT22;8529;48.108;-1.706;2023-05-19T00:07:10;13.10;99.90
16825;DHT22;8529;48.108;-1.706;2023-05-19T00:09:37;13.10;99.90
16825;DHT22;8529;48.108;-1.706;2023-05-19T00:12:05;13.10;99.90
16825;DHT22;8529;48.108;-1.706;2023-05-19T00:14:32;13.00;99.90
16825;DHT22;8529;48.108;-1.706;2023-05-19T00:17:02;13.00;99.90
16825;DHT22;8529;48.108;-1.706;2023-05-19T00:19:29;13.00;99.90
16825;DHT22;8529;48.108;-1.706;2023-05-19T00:21:57;12.90;99.90
16825;DHT22;8529;48.108;-1.706;2023-05-19T00:24:24;12.90;99.90
16825;DHT22;8529;48.108;-1.706;2023-05-19T00:26:51;12.90;99.90
16825;DHT22;8529;48.108;-1.706;2023-05-19T00:29:18;12.90;99.90
16825;DHT22;8529;48.108;-1.706;2023-05-19T00:31:45;12.90;99.90
16825;DHT22;8529;48.108;-1.706;2023-05-19T00:34:13;12.90;99.90
16825;DHT22;8529;48.108;-1.706;2023-05-19T00:36:40;12.90;99.90
16825;DHT22;8529;48.108;-1.706;2023-05-19T00:39:07;12.90;99.90
16825;DHT22;8529;48.108;-1.706;2023-05-19T00:41:34;12.80;99.90
16825;DHT22;8529;48.108;-1.706;2023-05-19T00:44:01;12.80;99.90
16825;DHT22;8529;48.108;-1.706;2023-05-19T00:46:28;12.90;99.90
16825;DHT22;8529;48.108;-1.706;2023-05-19T00:48:55;12.90;99.90
16825;DHT22;8529;48.108;-1.706;2023-05-19T00:51:25;12.90;99.90
16825;DHT22;8529;48.108;-1.706;2023-05-19T00:53:52;12.80;99.90
16825;DHT22;8529;48.108;-1.706;2023-05-19T00:56:19;12.80;99.90
16825;DHT22;8529;48.108;-1.706;2023-05-19T00:58:47;12.80;99.90
16825;DHT22;8529;48.108;-1.706;2023-05-19T01:01:16;12.70;99.90
16825;DHT22;8529;48.108;-1.706;2023-05-19T01:03:47;12.70;99.90
16825;DHT22;8529;48.108;-1.706;2023-05-19T01:06:14;12.70;99.90
16825;DHT22;8529;48.108;-1.706;2023-05-19T01:08:44;12.60;99.90
16825;DHT22;8529;48.108;-1.706;2023-05-19T01:11:11;12.60;99.90
16825;DHT22;8529;48.108;-1.706;2023-05-19T01:13:38;12.50;99.90
16825;DHT22;8529;48.108;-1.706;2023-05-19T01:16:10;12.50;99.90
16825;DHT22;8529;48.108;-1.706;2023-05-19T01:18:42;12.50;99.90
16825;DHT22;8529;48.108;-1.706;2023-05-19T01:30:22;12.50;99.90
16825;DHT22;8529;48.108;-1.706;2023-05-19T01:32:52;12.40;99.90
16825;DHT22;8529;48.108;-1.706;2023-05-19T01:35:22;12.50;99.90
16825;DHT22;8529;48.108;-1.706;2023-05-19T01:37:51;12.50;99.90
16825;DHT22;8529;48.108;-1.706;2023-05-19T01:40:19;12.50;99.90
16825;DHT22;8529;48.108;-1.706;2023-05-19T01:42:48;12.40;99.90
16825;DHT22;8529;48.108;-1.706;2023-05-19T01:45:17;12.40;99.90
16825;DHT22;8529;48.108;-1.706;2023-05-19T01:47:53;12.40;99.90
16825;DHT22;8529;48.108;-1.706;2023-05-19T01:50:20;12.30;99.90
16825;DHT22;8529;48.108;-1.706;2023-05-19T01:52:47;12.30;99.90
16825;DHT22;8529;48.108;-1.706;2023-05-19T01:55:14;12.30;99.90
16825;DHT22;8529;48.108;-1.706;2023-05-19T01:57:48;12.20;99.90
16825;DHT22;8529;48.108;-1.706;2023-05-19T02:00:26;12.20;99.90
16825;DHT22;8529;48.108;-1.706;2023-05-19T02:03:03;12.20;99.90
16825;DHT22;8529;48.108;-1.706;2023-05-19T02:05:39;12.20;99.90
16825;DHT22;8529;48.108;-1.706;2023-05-19T02:08:13;12.20;99.90
16825;DHT22;8529;48.108;-1.706;2023-05-19T02:10:47;12.10;99.90
16825;DHT22;8529;48.108;-1.706;2023-05-19T02:13:17;12.20;99.90
16825;DHT22;8529;48.108;-1.706;2023-05-19T02:15:47;12.20;99.90
16825;DHT22;8529;48.108;-1.706;2023-05-19T02:18:15;12.20;99.90
16825;DHT22;8529;48.108;-1.706;2023-05-19T02:20:44;12.20;99.90
16825;DHT22;8529;48.108;-1.706;2023-05-19T02:23:11;12.20;99.90
16825;DHT22;8529;48.108;-1.706;2023-05-19T02:25:38;12.10;99.90
16825;DHT22;8529;48.108;-1.706;2023-05-19T02:28:05;12.10;99.90
16825;DHT22;8529;48.108;-1.706;2023-05-19T02:30:32;12.10;99.90
16825;DHT22;8529;48.108;-1.706;2023-05-19T02:33:00;12.10;99.90
16825;DHT22;8529;48.108;-1.706;2023-05-19T02:35:27;12.10;99.90
16825;DHT22;8529;48.108;-1.706;2023-05-19T02:37:54;12.10;99.90
16825;DHT22;8529;48.108;-1.706;2023-05-19T02:40:22;12.10;99.90
16825;DHT22;8529;48.108;-1.706;2023-05-19T02:42:49;12.10;99.90
16825;DHT22;8529;48.108;-1.706;2023-05-19T02:45:16;12.10;99.90
16825;DHT22;8529;48.108;-1.706;2023-05-19T02:47:42;12.10;99.90
16825;DHT22;8529;48.108;-1.706;2023-05-19T02:50:11;12.10;99.90
16825;DHT22;8529;48.108;-1.706;2023-05-19T02:52:38;12.10;99.90
16825;DHT22;8529;48.108;-1.706;2023-05-19T02:55:05;12.10;99.90
16825;DHT22;8529;48.108;-1.706;2023-05-19T02:57:34;12.00;99.90
16825;DHT22;8529;48.108;-1.706;2023-05-19T03:00:00;12.00;99.90
16825;DHT22;8529;48.108;-1.706;2023-05-19T03:02:30;12.00;99.90
16825;DHT22;8529;48.108;-1.706;2023-05-19T03:04:58;12.00;99.90
16825;DHT22;8529;48.108;-1.706;2023-05-19T03:07:29;12.00;99.90
16825;DHT22;8529;48.108;-1.706;2023-05-19T03:09:56;12.00;99.90
16825;DHT22;8529;48.108;-1.706;2023-05-19T03:12:22;12.00;99.90
16825;DHT22;8529;48.108;-1.706;2023-05-19T03:14:49;12.00;99.90
16825;DHT22;8529;48.108;-1.706;2023-05-19T03:17:16;12.00;99.90
16825;DHT22;8529;48.108;-1.706;2023-05-19T03:19:43;11.90;99.90
16825;DHT22;8529;48.108;-1.706;2023-05-19T03:22:10;11.90;99.90
16825;DHT22;8529;48.108;-1.706;2023-05-19T03:24:38;11.90;99.90
16825;DHT22;8529;48.108;-1.706;2023-05-19T03:27:05;11.90;99.90
16825;DHT22;8529;48.108;-1.706;2023-05-19T03:29:32;11.90;99.90
16825;DHT22;8529;48.108;-1.706;2023-05-19T03:31:59;11.90;99.90
16825;DHT22;8529;48.108;-1.706;2023-05-19T03:34:26;11.80;99.90
16825;DHT22;8529;48.108;-1.706;2023-05-19T03:36:53;11.80;99.90
16825;DHT22;8529;48.108;-1.706;2023-05-19T03:39:20;11.80;99.90
16825;DHT22;8529;48.108;-1.706;2023-05-19T03:41:48;11.80;99.90
16825;DHT22;8529;48.108;-1.706;2023-05-19T03:44:15;11.80;99.90
16825;DHT22;8529;48.108;-1.706;2023-05-19T03:46:42;11.80;99.90
16825;DHT22;8529;48.108;-1.706;2023-05-19T03:49:09;11.70;99.90
16825;DHT22;8529;48.108;-1.706;2023-05-19T03:51:36;11.70;99.90
16825;DHT22;8529;48.108;-1.706;2023-05-19T03:54:03;11.70;99.90
16825;DHT22;8529;48.108;-1.706;2023-05-19T03:56:30;11.70;99.90
16825;DHT22;8529;48.108;-1.706;2023-05-19T03:58:58;11.60;99.90
16825;DHT22;8529;48.108;-1.706;2023-05-19T04:01:25;11.40;99.90
16825;DHT22;8529;48.108;-1.706;2023-05-19T04:03:52;11.30;99.90
16825;DHT22;8529;48.108;-1.706;2023-05-19T04:06:19;11.30;99.90
16825;DHT22;8529;48.108;-1.706;2023-05-19T04:08:46;11.30;99.90
16825;DHT22;8529;48.108;-1.706;2023-05-19T04:11:13;11.30;99.90
16825;DHT22;8529;48.108;-1.706;2023-05-19T04:13:40;11.30;99.90
16825;DHT22;8529;48.108;-1.706;2023-05-19T04:16:08;11.20;99.90
16825;DHT22;8529;48.108;-1.706;2023-05-19T04:18:35;11.10;99.90
16825;DHT22;8529;48.108;-1.706;2023-05-19T04:21:02;11.10;99.90
16825;DHT22;8529;48.108;-1.706;2023-05-19T04:23:29;11.10;99.90
16825;DHT22;8529;48.108;-1.706;2023-05-19T04:25:57;11.00;99.90
16825;DHT22;8529;48.108;-1.706;2023-05-19T04:28:24;11.00;99.90
16825;DHT22;8529;48.108;-1.706;2023-05-19T04:30:51;11.00;99.90
16825;DHT22;8529;48.108;-1.706;2023-05-19T04:33:20;10.90;99.90
16825;DHT22;8529;48.108;-1.706;2023-05-19T04:35:47;10.90;99.90
16825;DHT22;8529;48.108;-1.706;2023-05-19T04:38:14;10.90;99.90
16825;DHT22;8529;48.108;-1.706;2023-05-19T04:40:43;11.00;99.90
16825;DHT22;8529;48.108;-1.706;2023-05-19T04:43:10;11.00;99.90
16825;DHT22;8529;48.108;-1.706;2023-05-19T04:45:37;10.90;99.90
16825;DHT22;8529;48.108;-1.706;2023-05-19T04:48:07;11.00;99.90
16825;DHT22;8529;48.108;-1.706;2023-05-19T04:50:35;11.00;99.90
16825;DHT22;8529;48.108;-1.706;2023-05-19T04:53:03;11.20;99.90
16825;DHT22;8529;48.108;-1.706;2023-05-19T04:55:29;11.30;99.90
16825;DHT22;8529;48.108;-1.706;2023-05-19T04:57:57;11.30;99.90
16825;DHT22;8529;48.108;-1.706;2023-05-19T05:00:24;11.30;99.90
16825;DHT22;8529;48.108;-1.706;2023-05-19T05:02:51;11.40;99.90
16825;DHT22;8529;48.108;-1.706;2023-05-19T05:05:18;11.40;99.90
16825;DHT22;8529;48.108;-1.706;2023-05-19T05:07:46;11.50;99.90
16825;DHT22;8529;48.108;-1.706;2023-05-19T05:10:14;11.50;99.90
16825;DHT22;8529;48.108;-1.706;2023-05-19T05:12:41;11.50;99.90
16825;DHT22;8529;48.108;-1.706;2023-05-19T05:15:09;11.50;99.90
16825;DHT22;8529;48.108;-1.706;2023-05-19T05:17:37;11.50;99.90
16825;DHT22;8529;48.108;-1.706;2023-05-19T05:20:05;11.50;99.90
16825;DHT22;8529;48.108;-1.706;2023-05-19T05:22:33;11.50;99.90
16825;DHT22;8529;48.108;-1.706;2023-05-19T05:25:02;11.60;99.90
16825;DHT22;8529;48.108;-1.706;2023-05-19T05:27:29;11.60;99.90
16825;DHT22;8529;48.108;-1.706;2023-05-19T05:29:57;11.60;99.90
16825;DHT22;8529;48.108;-1.706;2023-05-19T05:32:24;11.60;99.90
16825;DHT22;8529;48.108;-1.706;2023-05-19T05:34:51;11.70;99.90
16825;DHT22;8529;48.108;-1.706;2023-05-19T05:37:17;11.70;99.90
16825;DHT22;8529;48.108;-1.706;2023-05-19T05:39:44;11.70;99.90
16825;DHT22;8529;48.108;-1.706;2023-05-19T05:42:12;11.80;99.90
16825;DHT22;8529;48.108;-1.706;2023-05-19T05:44:40;11.80;99.90
16825;DHT22;8529;48.108;-1.706;2023-05-19T05:47:08;11.80;99.90
16825;DHT22;8529;48.108;-1.706;2023-05-19T05:49:37;11.90;99.90
16825;DHT22;8529;48.108;-1.706;2023-05-19T05:52:06;11.90;99.90
16825;DHT22;8529;48.108;-1.706;2023-05-19T05:54:34;12.00;99.90
16825;DHT22;8529;48.108;-1.706;2023-05-19T05:57:01;12.00;99.90
16825;DHT22;8529;48.108;-1.706;2023-05-19T05:59:30;12.00;99.90
16825;DHT22;8529;48.108;-1.706;2023-05-19T06:01:58;12.10;99.90
16825;DHT22;8529;48.108;-1.706;2023-05-19T06:04:25;12.10;99.90
16825;DHT22;8529;48.108;-1.706;2023-05-19T06:06:52;12.10;99.90
16825;DHT22;8529;48.108;-1.706;2023-05-19T06:09:21;12.20;99.90
16825;DHT22;8529;48.108;-1.706;2023-05-19T06:11:48;12.20;99.90
16825;DHT22;8529;48.108;-1.706;2023-05-19T06:14:15;12.20;99.90
16825;DHT22;8529;48.108;-1.706;2023-05-19T06:16:44;12.30;99.90
16825;DHT22;8529;48.108;-1.706;2023-05-19T06:19:12;12.30;99.90
16825;DHT22;8529;48.108;-1.706;2023-05-19T06:21:39;12.30;99.90
16825;DHT22;8529;48.108;-1.706;2023-05-19T06:24:07;12.30;99.90
16825;DHT22;8529;48.108;-1.706;2023-05-19T06:26:34;12.40;99.90
16825;DHT22;8529;48.108;-1.706;2023-05-19T06:29:01;12.50;99.90
16825;DHT22;8529;48.108;-1.706;2023-05-19T06:31:28;12.50;99.90
16825;DHT22;8529;48.108;-1.706;2023-05-19T06:33:57;12.60;99.90
16825;DHT22;8529;48.108;-1.706;2023-05-19T06:36:24;12.60;99.90
16825;DHT22;8529;48.108;-1.706;2023-05-19T06:38:51;12.60;99.90
16825;DHT22;8529;48.108;-1.706;2023-05-19T06:41:18;12.70;99.90
16825;DHT22;8529;48.108;-1.706;2023-05-19T06:43:46;12.70;99.90
16825;DHT22;8529;48.108;-1.706;2023-05-19T06:46:13;12.70;99.90
16825;DHT22;8529;48.108;-1.706;2023-05-19T06:48:42;12.70;99.90
16825;DHT22;8529;48.108;-1.706;2023-05-19T06:51:10;12.70;99.90
16825;DHT22;8529;48.108;-1.706;2023-05-19T06:53:37;12.80;99.90
16825;DHT22;8529;48.108;-1.706;2023-05-19T06:56:04;12.80;99.90
16825;DHT22;8529;48.108;-1.706;2023-05-19T06:58:32;12.90;99.90
16825;DHT22;8529;48.108;-1.706;2023-05-19T07:00:59;12.90;99.90
16825;DHT22;8529;48.108;-1.706;2023-05-19T07:03:26;12.90;99.90
16825;DHT22;8529;48.108;-1.706;2023-05-19T07:05:53;13.00;99.90
16825;DHT22;8529;48.108;-1.706;2023-05-19T07:08:21;13.10;99.90
16825;DHT22;8529;48.108;-1.706;2023-05-19T07:10:48;13.10;99.90
16825;DHT22;8529;48.108;-1.706;2023-05-19T07:13:15;13.20;99.90
16825;DHT22;8529;48.108;-1.706;2023-05-19T07:15:42;13.20;99.90
16825;DHT22;8529;48.108;-1.706;2023-05-19T07:18:09;13.20;99.90
16825;DHT22;8529;48.108;-1.706;2023-05-19T07:20:35;13.20;99.90
16825;DHT22;8529;48.108;-1.706;2023-05-19T07:23:02;13.20;99.90
16825;DHT22;8529;48.108;-1.706;2023-05-19T07:25:31;13.30;99.90
16825;DHT22;8529;48.108;-1.706;2023-05-19T07:27:58;13.30;99.90
16825;DHT22;8529;48.108;-1.706;2023-05-19T07:30:26;13.30;99.90
16825;DHT22;8529;48.108;-1.706;2023-05-19T07:32:53;13.40;99.90
16825;DHT22;8529;48.108;-1.706;2023-05-19T07:35:20;13.40;99.90
16825;DHT22;8529;48.108;-1.706;2023-05-19T07:37:47;13.50;99.90
16825;DHT22;8529;48.108;-1.706;2023-05-19T07:40:14;13.50;99.90
16825;DHT22;8529;48.108;-1.706;2023-05-19T07:42:42;13.50;99.90
16825;DHT22;8529;48.108;-1.706;2023-05-19T07:45:10;13.60;99.90
16825;DHT22;8529;48.108;-1.706;2023-05-19T07:47:37;13.60;99.90
16825;DHT22;8529;48.108;-1.706;2023-05-19T07:50:04;13.60;99.90
16825;DHT22;8529;48.108;-1.706;2023-05-19T07:52:31;13.60;99.90
16825;DHT22;8529;48.108;-1.706;2023-05-19T07:54:58;13.70;99.90
16825;DHT22;8529;48.108;-1.706;2023-05-19T07:57:25;13.70;99.90
16825;DHT22;8529;48.108;-1.706;2023-05-19T07:59:53;13.80;99.90
16825;DHT22;8529;48.108;-1.706;2023-05-19T08:02:21;13.80;99.90
16825;DHT22;8529;48.108;-1.706;2023-05-19T08:04:47;13.80;99.90
16825;DHT22;8529;48.108;-1.706;2023-05-19T08:07:14;13.90;99.90
16825;DHT22;8529;48.108;-1.706;2023-05-19T08:09:41;13.90;99.90
16825;DHT22;8529;48.108;-1.706;2023-05-19T08:12:08;14.00;99.90
16825;DHT22;8529;48.108;-1.706;2023-05-19T08:14:35;14.00;99.90
16825;DHT22;8529;48.108;-1.706;2023-05-19T08:17:03;14.10;99.90
16825;DHT22;8529;48.108;-1.706;2023-05-19T08:19:30;14.10;99.90
16825;DHT22;8529;48.108;-1.706;2023-05-19T08:21:57;14.10;99.90
16825;DHT22;8529;48.108;-1.706;2023-05-19T08:24:25;14.20;99.90
16825;DHT22;8529;48.108;-1.706;2023-05-19T08:26:53;14.20;99.90
16825;DHT22;8529;48.108;-1.706;2023-05-19T08:29:20;14.30;99.90
16825;DHT22;8529;48.108;-1.706;2023-05-19T08:31:47;14.30;99.90
16825;DHT22;8529;48.108;-1.706;2023-05-19T08:34:16;14.30;99.90
16825;DHT22;8529;48.108;-1.706;2023-05-19T08:36:43;14.40;99.90
16825;DHT22;8529;48.108;-1.706;2023-05-19T08:39:10;14.40;99.90
16825;DHT22;8529;48.108;-1.706;2023-05-19T08:41:38;14.40;99.90
16825;DHT22;8529;48.108;-1.706;2023-05-19T08:44:05;14.50;99.90
16825;DHT22;8529;48.108;-1.706;2023-05-19T08:46:32;14.50;99.90
16825;DHT22;8529;48.108;-1.706;2023-05-19T08:49:04;14.50;99.90
16825;DHT22;8529;48.108;-1.706;2023-05-19T08:51:41;14.60;99.90
16825;DHT22;8529;48.108;-1.706;2023-05-19T08:54:14;14.60;99.90
16825;DHT22;8529;48.108;-1.706;2023-05-19T08:56:43;14.70;99.90
16825;DHT22;8529;48.108;-1.706;2023-05-19T08:59:11;14.80;99.90
16825;DHT22;8529;48.108;-1.706;2023-05-19T09:01:40;14.90;99.90
16825;DHT22;8529;48.108;-1.706;2023-05-19T09:04:08;14.90;99.90
16825;DHT22;8529;48.108;-1.706;2023-05-19T09:06:36;15.00;99.90
16825;DHT22;8529;48.108;-1.706;2023-05-19T09:09:05;15.10;99.90
16825;DHT22;8529;48.108;-1.706;2023-05-19T09:11:33;15.30;99.90
16825;DHT22;8529;48.108;-1.706;2023-05-19T09:14:00;15.40;99.90
16825;DHT22;8529;48.108;-1.706;2023-05-19T09:16:27;15.50;99.90
16825;DHT22;8529;48.108;-1.706;2023-05-19T09:18:55;15.50;99.90
16825;DHT22;8529;48.108;-1.706;2023-05-19T09:21:29;15.60;99.90
16825;DHT22;8529;48.108;-1.706;2023-05-19T09:24:03;15.70;99.90
16825;DHT22;8529;48.108;-1.706;2023-05-19T09:26:35;15.80;99.90
16825;DHT22;8529;48.108;-1.706;2023-05-19T09:29:10;16.00;99.90
16825;DHT22;8529;48.108;-1.706;2023-05-19T09:31:37;16.20;99.90
16825;DHT22;8529;48.108;-1.706;2023-05-19T09:34:04;16.50;99.90
16825;DHT22;8529;48.108;-1.706;2023-05-19T09:36:38;16.60;99.90
16825;DHT22;8529;48.108;-1.706;2023-05-19T09:39:13;16.90;99.90
16825;DHT22;8529;48.108;-1.706;2023-05-19T09:41:40;17.10;99.90
16825;DHT22;8529;48.108;-1.706;2023-05-19T09:44:11;17.00;99.90
16825;DHT22;8529;48.108;-1.706;2023-05-19T09:46:46;16.90;99.90
16825;DHT22;8529;48.108;-1.706;2023-05-19T09:49:18;17.00;99.90
16825;DHT22;8529;48.108;-1.706;2023-05-19T09:51:47;16.80;99.90
16825;DHT22;8529;48.108;-1.706;2023-05-19T09:54:15;16.60;99.90
16825;DHT22;8529;48.108;-1.706;2023-05-19T09:56:42;16.60;99.90
16825;DHT22;8529;48.108;-1.706;2023-05-19T09:59:09;16.60;99.90
16825;DHT22;8529;48.108;-1.706;2023-05-19T10:01:37;16.70;99.90
16825;DHT22;8529;48.108;-1.706;2023-05-19T10:04:06;16.70;99.90
16825;DHT22;8529;48.108;-1.706;2023-05-19T10:06:33;16.60;99.90
16825;DHT22;8529;48.108;-1.706;2023-05-19T10:09:02;16.60;99.90
16825;DHT22;8529;48.108;-1.706;2023-05-19T10:11:31;16.60;99.90
16825;DHT22;8529;48.108;-1.706;2023-05-19T10:13:58;16.70;99.90
16825;DHT22;8529;48.108;-1.706;2023-05-19T10:16:25;16.70;99.90
16825;DHT22;8529;48.108;-1.706;2023-05-19T10:18:54;16.60;99.90
16825;DHT22;8529;48.108;-1.706;2023-05-19T10:21:23;16.50;99.90
16825;DHT22;8529;48.108;-1.706;2023-05-19T10:23:49;16.60;99.90
16825;DHT22;8529;48.108;-1.706;2023-05-19T10:26:16;16.60;99.90
16825;DHT22;8529;48.108;-1.706;2023-05-19T10:28:46;16.60;99.90
16825;DHT22;8529;48.108;-1.706;2023-05-19T10:31:18;16.60;99.90
16825;DHT22;8529;48.108;-1.706;2023-05-19T10:34:04;16.60;99.90
16825;DHT22;8529;48.108;-1.706;2023-05-19T10:36:44;16.60;99.90
16825;DHT22;8529;48.108;-1.706;2023-05-19T10:39:16;16.60;99.90
16825;DHT22;8529;48.108;-1.706;2023-05-19T10:42:02;16.60;99.90
16825;DHT22;8529;48.108;-1.706;2023-05-19T10:44:41;16.70;99.90
16825;DHT22;8529;48.108;-1.706;2023-05-19T10:47:11;16.90;99.90
16825;DHT22;8529;48.108;-1.706;2023-05-19T10:49:38;17.00;99.90
16825;DHT22;8529;48.108;-1.706;2023-05-19T10:52:18;17.00;99.90
16825;DHT22;8529;48.108;-1.706;2023-05-19T10:54:47;17.10;99.90
16825;DHT22;8529;48.108;-1.706;2023-05-19T10:57:14;17.10;99.90
16825;DHT22;8529;48.108;-1.706;2023-05-19T10:59:43;17.10;99.90
16825;DHT22;8529;48.108;-1.706;2023-05-19T11:02:37;17.20;99.90
16825;DHT22;8529;48.108;-1.706;2023-05-19T11:05:09;17.20;99.90
16825;DHT22;8529;48.108;-1.706;2023-05-19T11:07:40;17.10;99.90
16825;DHT22;8529;48.108;-1.706;2023-05-19T11:10:08;17.10;99.90
16825;DHT22;8529;48.108;-1.706;2023-05-19T11:12:40;17.20;99.90
16825;DHT22;8529;48.108;-1.706;2023-05-19T11:15:11;17.30;99.90
16825;DHT22;8529;48.108;-1.706;2023-05-19T11:17:39;17.20;99.90
16825;DHT22;8529;48.108;-1.706;2023-05-19T11:20:08;17.30;99.90
16825;DHT22;8529;48.108;-1.706;2023-05-19T11:22:36;17.40;99.90
16825;DHT22;8529;48.108;-1.706;2023-05-19T11:25:04;17.30;99.90
16825;DHT22;8529;48.108;-1.706;2023-05-19T11:27:33;17.30;99.90
16825;DHT22;8529;48.108;-1.706;2023-05-19T11:30:09;17.40;99.90
16825;DHT22;8529;48.108;-1.706;2023-05-19T11:32:39;17.40;99.90
16825;DHT22;8529;48.108;-1.706;2023-05-19T11:35:08;17.30;99.90
16825;DHT22;8529;48.108;-1.706;2023-05-19T11:37:35;17.30;99.90
16825;DHT22;8529;48.108;-1.706;2023-05-19T11:40:06;17.40;99.90
16825;DHT22;8529;48.108;-1.706;2023-05-19T11:42:34;17.50;99.90
16825;DHT22;8529;48.108;-1.706;2023-05-19T11:45:01;17.50;99.90
16825;DHT22;8529;48.108;-1.706;2023-05-19T11:47:30;17.30;99.90
16825;DHT22;8529;48.108;-1.706;2023-05-19T11:49:58;17.30;99.90
16825;DHT22;8529;48.108;-1.706;2023-05-19T11:52:26;17.40;99.90
16825;DHT22;8529;48.108;-1.706;2023-05-19T11:54:52;17.70;99.90
16825;DHT22;8529;48.108;-1.706;2023-05-19T11:57:21;17.70;99.90
16825;DHT22;8529;48.108;-1.706;2023-05-19T11:59:48;17.70;99.90
16825;DHT22;8529;48.108;-1.706;2023-05-19T12:02:17;17.70;99.90
16825;DHT22;8529;48.108;-1.706;2023-05-19T12:04:46;17.80;99.90
16825;DHT22;8529;48.108;-1.706;2023-05-19T12:07:15;17.80;99.90
16825;DHT22;8529;48.108;-1.706;2023-05-19T12:09:43;17.70;99.90
16825;DHT22;8529;48.108;-1.706;2023-05-19T12:12:12;17.70;99.90
16825;DHT22;8529;48.108;-1.706;2023-05-19T12:14:39;17.70;99.90
16825;DHT22;8529;48.108;-1.706;2023-05-19T12:17:11;17.80;99.90
16825;DHT22;8529;48.108;-1.706;2023-05-19T12:19:38;17.70;99.90
16825;DHT22;8529;48.108;-1.706;2023-05-19T12:22:07;17.60;99.90
16825;DHT22;8529;48.108;-1.706;2023-05-19T12:24:35;17.60;99.90
16825;DHT22;8529;48.108;-1.706;2023-05-19T12:27:09;17.60;99.90
16825;DHT22;8529;48.108;-1.706;2023-05-19T12:29:37;17.60;99.90
16825;DHT22;8529;48.108;-1.706;2023-05-19T12:32:05;17.70;99.90
16825;DHT22;8529;48.108;-1.706;2023-05-19T12:34:34;17.80;99.90
16825;DHT22;8529;48.108;-1.706;2023-05-19T12:37:02;17.80;99.90
16825;DHT22;8529;48.108;-1.706;2023-05-19T12:39:30;17.90;99.90
16825;DHT22;8529;48.108;-1.706;2023-05-19T12:42:01;17.90;99.90
16825;DHT22;8529;48.108;-1.706;2023-05-19T12:44:28;17.90;99.90
16825;DHT22;8529;48.108;-1.706;2023-05-19T12:46:56;17.90;99.90
16825;DHT22;8529;48.108;-1.706;2023-05-19T12:49:23;17.90;99.90
16825;DHT22;8529;48.108;-1.706;2023-05-19T12:51:51;18.00;99.90
16825;DHT22;8529;48.108;-1.706;2023-05-19T12:54:19;18.00;99.90
16825;DHT22;8529;48.108;-1.706;2023-05-19T12:56:51;18.10;99.90
16825;DHT22;8529;48.108;-1.706;2023-05-19T12:59:22;18.10;99.90
16825;DHT22;8529;48.108;-1.706;2023-05-19T13:01:56;18.10;99.60
16825;DHT22;8529;48.108;-1.706;2023-05-19T13:04:23;18.00;99.60
16825;DHT22;8529;48.108;-1.706;2023-05-19T13:06:51;18.00;99.90
16825;DHT22;8529;48.108;-1.706;2023-05-19T13:09:18;18.10;99.90
16825;DHT22;8529;48.108;-1.706;2023-05-19T13:11:46;18.10;99.90
16825;DHT22;8529;48.108;-1.706;2023-05-19T13:14:17;18.10;99.90
16825;DHT22;8529;48.108;-1.706;2023-05-19T13:16:44;18.10;99.90
16825;DHT22;8529;48.108;-1.706;2023-05-19T13:19:12;18.10;99.90
16825;DHT22;8529;48.108;-1.706;2023-05-19T13:21:39;18.10;99.60
16825;DHT22;8529;48.108;-1.706;2023-05-19T13:24:06;18.00;99.90
16825;DHT22;8529;48.108;-1.706;2023-05-19T13:26:33;18.10;99.50
16825;DHT22;8529;48.108;-1.706;2023-05-19T13:29:00;18.10;99.70
16825;DHT22;8529;48.108;-1.706;2023-05-19T13:31:29;18.10;99.50
16825;DHT22;8529;48.108;-1.706;2023-05-19T13:33:56;18.20;99.30
16825;DHT22;8529;48.108;-1.706;2023-05-19T13:36:24;18.10;99.80
16825;DHT22;8529;48.108;-1.706;2023-05-19T13:38:52;18.00;99.90
16825;DHT22;8529;48.108;-1.706;2023-05-19T13:41:22;18.00;99.40
16825;DHT22;8529;48.108;-1.706;2023-05-19T13:43:50;18.00;99.40
16825;DHT22;8529;48.108;-1.706;2023-05-19T13:46:17;18.00;99.60
16825;DHT22;8529;48.108;-1.706;2023-05-19T13:48:45;18.00;99.90
16825;DHT22;8529;48.108;-1.706;2023-05-19T13:51:12;18.00;99.90
16825;DHT22;8529;48.108;-1.706;2023-05-19T13:53:39;18.00;99.90
16825;DHT22;8529;48.108;-1.706;2023-05-19T13:56:06;18.00;98.90
16825;DHT22;8529;48.108;-1.706;2023-05-19T13:58:33;18.10;98.40
16825;DHT22;8529;48.108;-1.706;2023-05-19T14:01:00;18.00;98.60
16825;DHT22;8529;48.108;-1.706;2023-05-19T14:03:27;18.00;98.00
16825;DHT22;8529;48.108;-1.706;2023-05-19T14:05:55;18.00;98.30
16825;DHT22;8529;48.108;-1.706;2023-05-19T14:08:22;18.00;98.70
16825;DHT22;8529;48.108;-1.706;2023-05-19T14:10:49;18.00;98.90
16825;DHT22;8529;48.108;-1.706;2023-05-19T14:13:17;18.00;99.10
16825;DHT22;8529;48.108;-1.706;2023-05-19T14:15:44;18.00;99.00
16825;DHT22;8529;48.108;-1.706;2023-05-19T14:18:10;17.90;99.20
16825;DHT22;8529;48.108;-1.706;2023-05-19T14:20:37;17.90;99.40
16825;DHT22;8529;48.108;-1.706;2023-05-19T14:23:05;17.90;99.80
16825;DHT22;8529;48.108;-1.706;2023-05-19T14:25:32;17.90;99.90
16825;DHT22;8529;48.108;-1.706;2023-05-19T14:27:59;17.90;99.90
16825;DHT22;8529;48.108;-1.706;2023-05-19T14:30:26;17.90;99.90
16825;DHT22;8529;48.108;-1.706;2023-05-19T14:32:53;17.90;99.90
16825;DHT22;8529;48.108;-1.706;2023-05-19T14:35:20;17.90;99.90
16825;DHT22;8529;48.108;-1.706;2023-05-19T14:37:47;17.90;99.90
16825;DHT22;8529;48.108;-1.706;2023-05-19T14:40:16;17.90;99.90
16825;DHT22;8529;48.108;-1.706;2023-05-19T14:42:43;17.90;99.90
16825;DHT22;8529;48.108;-1.706;2023-05-19T14:45:10;17.90;99.90
16825;DHT22;8529;48.108;-1.706;2023-05-19T14:47:37;17.90;99.90
16825;DHT22;8529;48.108;-1.706;2023-05-19T14:50:05;17.90;99.90
16825;DHT22;8529;48.108;-1.706;2023-05-19T14:52:32;17.80;99.90
16825;DHT22;8529;48.108;-1.706;2023-05-19T14:54:59;17.80;99.90
16825;DHT22;8529;48.108;-1.706;2023-05-19T14:57:27;17.80;99.90
16825;DHT22;8529;48.108;-1.706;2023-05-19T14:59:54;17.80;99.90
16825;DHT22;8529;48.108;-1.706;2023-05-19T15:02:21;17.80;99.90
16825;DHT22;8529;48.108;-1.706;2023-05-19T15:04:48;17.80;99.90
16825;DHT22;8529;48.108;-1.706;2023-05-19T15:07:15;17.80;99.90
16825;DHT22;8529;48.108;-1.706;2023-05-19T15:09:42;17.90;99.90
16825;DHT22;8529;48.108;-1.706;2023-05-19T15:12:09;18.00;99.90
16825;DHT22;8529;48.108;-1.706;2023-05-19T15:14:37;18.00;99.90
16825;DHT22;8529;48.108;-1.706;2023-05-19T15:17:04;17.90;99.90
16825;DHT22;8529;48.108;-1.706;2023-05-19T15:19:31;18.00;99.90
16825;DHT22;8529;48.108;-1.706;2023-05-19T15:21:58;17.90;99.90
16825;DHT22;8529;48.108;-1.706;2023-05-19T15:24:25;18.00;99.90
16825;DHT22;8529;48.108;-1.706;2023-05-19T15:26:52;18.00;99.90
16825;DHT22;8529;48.108;-1.706;2023-05-19T15:29:20;18.00;99.90
16825;DHT22;8529;48.108;-1.706;2023-05-19T15:31:50;18.00;99.90
16825;DHT22;8529;48.108;-1.706;2023-05-19T15:34:17;18.10;99.90
16825;DHT22;8529;48.108;-1.706;2023-05-19T15:36:44;18.00;99.90
16825;DHT22;8529;48.108;-1.706;2023-05-19T15:39:11;18.00;99.90
16825;DHT22;8529;48.108;-1.706;2023-05-19T15:41:38;18.00;99.90
16825;DHT22;8529;48.108;-1.706;2023-05-19T15:44:05;18.00;99.90
16825;DHT22;8529;48.108;-1.706;2023-05-19T15:46:32;18.00;99.90